createdAt,value
2019-05-22T00:01:00.699Z,29.12
2019-05-22T00:03:33.905Z,31.15
2019-05-22T00:06:06.390Z,32.75
2019-05-22T00:08:37.151Z,32.53
2019-05-22T00:11:05.911Z,32.70
2019-05-22T00:13:38.166Z,31.02
2019-05-22T00:16:11.177Z,28.55
2019-05-22T00:18:40.077Z,28.12
2019-05-22T00:21:10.244Z,27.07
2019-05-22T00:23:41.456Z,25.57
2019-05-22T00:26:11.316Z,26.93
2019-05-22T00:28:40.736Z,23.45
2019-05-22T00:31:09.912Z,27.00
2019-05-22T00:33:39.283Z,27.05
2019-05-22T00:36:10.684Z,25.17
2019-05-22T00:38:39.857Z,24.92
2019-05-22T00:41:10.501Z,23.92
2019-05-22T00:43:41.239Z,24.47
2019-05-22T00:46:12.539Z,23.62
2019-05-22T00:48:42.002Z,21.68
2019-05-22T00:51:22.686Z,21.50
2019-05-22T00:53:55.936Z,21.05
2019-05-22T00:56:28.105Z,21.45
2019-05-22T00:59:05.825Z,22.02
2019-05-22T01:01:48.147Z,23.90
2019-05-22T01:04:19.118Z,24.60
2019-05-22T01:06:48.661Z,25.30
2019-05-22T01:09:19.956Z,25.02
2019-05-22T01:11:48.777Z,25.05
2019-05-22T01:14:18.904Z,27.62
2019-05-22T01:16:49.343Z,28.50
2019-05-22T01:19:19.386Z,28.23
2019-05-22T01:21:50.543Z,28.85
2019-05-22T01:24:19.692Z,28.77
2019-05-22T01:26:50.041Z,28.73
2019-05-22T01:29:21.707Z,30.17
2019-05-22T01:32:08.910Z,31.52
2019-05-22T01:34:38.458Z,31.25
2019-05-22T01:37:08.774Z,30.55
2019-05-22T01:39:45.639Z,31.95
2019-05-22T01:42:17.535Z,25.25
2019-05-22T01:44:59.788Z,24.15
2019-05-22T01:47:24.315Z,23.10
2019-05-22T01:49:58.280Z,22.45
2019-05-22T01:52:27.057Z,22.48
2019-05-22T01:54:57.671Z,23.70
2019-05-22T01:57:27.722Z,28.20
2019-05-22T01:59:57.700Z,28.12
2019-05-22T02:02:26.676Z,31.42
2019-05-22T02:04:58.506Z,30.20
2019-05-22T02:07:29.056Z,27.30
2019-05-22T02:09:59.467Z,24.12
2019-05-22T02:12:37.790Z,23.40
2019-05-22T02:15:07.656Z,24.27
2019-05-22T02:17:37.237Z,24.77
2019-05-22T02:20:08.621Z,24.27
2019-05-22T02:22:38.799Z,24.43
2019-05-22T02:25:08.343Z,23.20
2019-05-22T02:27:38.844Z,23.85
2019-05-22T02:30:09.543Z,23.05
2019-05-22T02:32:39.093Z,22.37
2019-05-22T02:35:09.379Z,20.15
2019-05-22T02:37:39.457Z,21.73
2019-05-22T02:40:13.664Z,19.62
2019-05-22T02:42:42.490Z,19.80
2019-05-22T02:45:11.246Z,19.07
2019-05-22T02:47:40.740Z,19.77
2019-05-22T02:50:09.499Z,18.70
2019-05-22T02:52:38.473Z,19.67
2019-05-22T02:55:07.430Z,18.82
2019-05-22T02:57:36.641Z,18.52
2019-05-22T03:00:06.934Z,18.25
2019-05-22T03:02:39.328Z,15.95
2019-05-22T03:05:10.442Z,17.25
2019-05-22T03:07:41.655Z,16.00
2019-05-22T03:10:12.951Z,16.97
2019-05-22T03:12:45.686Z,15.80
2019-05-22T03:15:16.630Z,14.73
2019-05-22T03:17:45.604Z,16.12
2019-05-22T03:20:18.966Z,15.28
2019-05-22T03:23:09.894Z,14.45
2019-05-22T03:25:39.042Z,13.93
2019-05-22T03:28:08.188Z,14.80
2019-05-22T03:30:41.187Z,15.43
2019-05-22T03:33:10.250Z,17.00
2019-05-22T03:35:51.045Z,15.45
2019-05-22T03:38:20.528Z,17.00
2019-05-22T03:40:52.236Z,15.88
2019-05-22T03:43:24.743Z,15.65
2019-05-22T03:45:56.507Z,15.70
2019-05-22T03:48:27.744Z,16.62
2019-05-22T03:51:00.987Z,19.15
2019-05-22T03:53:30.603Z,17.12
2019-05-22T03:55:59.732Z,17.42
2019-05-22T03:58:29.022Z,17.35
2019-05-22T04:00:58.778Z,17.25
2019-05-22T04:03:27.831Z,17.52
2019-05-22T04:05:57.319Z,17.42
2019-05-22T04:08:27.544Z,17.17
2019-05-22T04:10:59.959Z,16.05
2019-05-22T04:13:29.772Z,15.58
2019-05-22T04:15:59.775Z,14.70
2019-05-22T04:18:29.706Z,15.48
2019-05-22T04:21:00.499Z,15.13
2019-05-22T04:23:29.295Z,16.10
2019-05-22T04:25:59.142Z,17.50
2019-05-22T04:28:29.933Z,16.73
2019-05-22T04:31:00.252Z,16.48
2019-05-22T04:33:30.923Z,18.23
2019-05-22T04:36:01.737Z,17.57
2019-05-22T04:38:30.820Z,17.10
2019-05-22T04:41:02.373Z,18.05
2019-05-22T04:43:34.204Z,16.97
2019-05-22T04:46:04.448Z,17.57
2019-05-22T04:51:26.156Z,17.42
2019-05-22T04:53:56.324Z,16.37
2019-05-22T04:56:26.031Z,17.67
2019-05-22T04:58:55.390Z,17.80
2019-05-22T05:01:24.768Z,17.20
2019-05-22T05:03:53.634Z,17.12
2019-05-22T05:06:24.048Z,17.98
2019-05-22T05:08:52.893Z,17.20
2019-05-22T05:11:21.939Z,17.45
2019-05-22T05:13:50.795Z,17.60
2019-05-22T05:16:23.287Z,17.17
2019-05-22T05:18:52.078Z,16.65
2019-05-22T05:21:20.849Z,16.93
2019-05-22T05:23:49.528Z,14.28
2019-05-22T05:26:19.182Z,14.38
2019-05-22T05:28:48.286Z,15.23
2019-05-22T05:31:18.450Z,14.35
2019-05-22T05:33:56.489Z,13.40
2019-05-22T05:36:25.675Z,12.65
2019-05-22T05:38:55.797Z,11.30
2019-05-22T05:41:24.662Z,10.98
2019-05-22T05:43:53.690Z,11.12
2019-05-22T05:46:22.372Z,11.50
2019-05-22T05:48:52.484Z,11.22
2019-05-22T05:51:23.341Z,9.85
2019-05-22T05:54:06.993Z,9.93
2019-05-22T05:56:37.514Z,9.30
2019-05-22T05:59:07.589Z,9.70
2019-05-22T06:01:41.077Z,8.45
2019-05-22T06:04:11.226Z,8.15
2019-05-22T06:06:43.146Z,7.75
2019-05-22T06:09:16.779Z,9.03
2019-05-22T06:11:48.749Z,8.55
2019-05-22T06:14:33.633Z,8.08
2019-05-22T06:17:25.101Z,7.40
2019-05-22T06:19:57.389Z,9.10
2019-05-22T06:22:26.139Z,8.28
2019-05-22T06:25:00.557Z,8.20
2019-05-22T06:27:31.756Z,8.00
2019-05-22T06:30:04.152Z,8.45
2019-05-22T06:32:52.776Z,8.05
2019-05-22T06:35:21.948Z,7.83
2019-05-22T06:38:00.776Z,8.18
2019-05-22T06:40:29.820Z,7.70
2019-05-22T06:43:21.823Z,7.58
2019-05-22T06:45:50.791Z,7.90
2019-05-22T06:48:19.497Z,7.50
2019-05-22T06:50:49.375Z,10.23
2019-05-22T06:53:19.378Z,8.45
2019-05-22T06:55:48.704Z,6.78
2019-05-22T06:58:18.395Z,7.30
2019-05-22T07:01:05.770Z,6.83
2019-05-22T07:03:39.227Z,7.40
2019-05-22T07:06:08.723Z,7.58
2019-05-22T07:08:40.171Z,6.45
2019-05-22T07:11:11.532Z,7.33
2019-05-22T07:13:40.422Z,7.45
2019-05-22T07:16:10.112Z,6.95
2019-05-22T07:18:40.618Z,6.92
2019-05-22T07:21:09.833Z,6.90
2019-05-22T07:23:38.456Z,7.03
2019-05-22T07:26:08.614Z,5.87
2019-05-22T07:28:37.935Z,5.90
2019-05-22T07:31:07.638Z,6.25
2019-05-22T07:33:38.784Z,6.33
2019-05-22T07:36:10.858Z,5.80
2019-05-22T07:38:38.300Z,5.40
2019-05-22T07:41:24.871Z,6.35
2019-05-22T07:43:49.793Z,6.47
2019-05-22T07:46:19.147Z,6.30
2019-05-22T07:48:49.089Z,8.00
2019-05-22T07:51:19.234Z,6.70
2019-05-22T07:53:48.328Z,7.95
2019-05-22T07:56:18.457Z,7.80
2019-05-22T07:58:48.717Z,7.72
2019-05-22T08:01:18.181Z,8.10
2019-05-22T08:03:48.826Z,7.75
2019-05-22T08:06:18.432Z,7.15
2019-05-22T08:08:47.526Z,7.12
2019-05-22T08:11:17.397Z,7.37
2019-05-22T08:13:46.253Z,6.92
2019-05-22T08:16:16.141Z,6.78
2019-05-22T08:18:45.556Z,6.97
2019-05-22T08:21:14.403Z,7.10
2019-05-22T08:23:43.658Z,6.28
2019-05-22T08:26:13.568Z,6.72
2019-05-22T08:28:42.523Z,5.65
2019-05-22T08:31:12.892Z,6.47
2019-05-22T08:33:41.896Z,6.12
2019-05-22T08:36:10.665Z,6.90
2019-05-22T08:38:39.642Z,6.72
2019-05-22T08:41:09.894Z,5.20
2019-05-22T08:44:03.136Z,5.60
2019-05-22T08:46:12.254Z,5.95
2019-05-22T08:48:47.719Z,5.17
2019-05-22T08:51:14.240Z,6.45
2019-05-22T08:53:47.869Z,6.55
2019-05-22T08:56:14.295Z,6.05
2019-05-22T08:58:44.350Z,6.72
2019-05-22T09:01:14.164Z,6.00
2019-05-22T09:03:43.771Z,7.28
2019-05-22T09:06:12.577Z,6.03
2019-05-22T09:08:41.326Z,5.90
2019-05-22T09:11:10.453Z,5.10
2019-05-22T09:13:39.826Z,5.17
2019-05-22T09:16:10.007Z,5.25
2019-05-22T09:18:47.527Z,5.95
2019-05-22T09:21:16.718Z,4.75
2019-05-22T09:23:46.841Z,4.83
2019-05-22T09:26:18.635Z,5.25
2019-05-22T09:28:47.490Z,4.55
2019-05-22T09:31:17.639Z,4.60
2019-05-22T09:33:46.664Z,4.53
2019-05-22T09:36:16.070Z,5.40
2019-05-22T09:38:45.849Z,4.53
2019-05-22T09:41:16.673Z,4.15
2019-05-22T09:43:45.272Z,3.47
2019-05-22T09:46:15.152Z,120.35
2019-05-22T09:48:44.136Z,51.63
2019-05-22T09:51:12.874Z,18.12
2019-05-22T09:53:41.668Z,5.87
2019-05-22T09:56:10.683Z,4.67
2019-05-22T09:58:39.381Z,3.60
2019-05-22T10:01:11.755Z,4.45
2019-05-22T10:03:39.494Z,5.30
2019-05-22T10:06:08.328Z,4.92
2019-05-22T10:08:37.476Z,2.92
2019-05-22T10:11:06.634Z,2.87
2019-05-22T10:13:36.241Z,2.95
2019-05-22T10:16:06.754Z,3.77
2019-05-22T10:18:36.095Z,3.52
2019-05-22T10:21:05.509Z,3.00
2019-05-22T10:23:34.132Z,3.00
2019-05-22T10:26:02.878Z,3.77
2019-05-22T10:28:31.674Z,3.72
2019-05-22T10:31:00.879Z,3.62
2019-05-22T10:33:30.346Z,6.25
2019-05-22T10:35:59.251Z,3.20
2019-05-22T10:38:27.995Z,2.70
2019-05-22T10:40:59.329Z,2.60
2019-05-22T10:43:28.631Z,3.40
2019-05-22T10:46:01.006Z,3.45
2019-05-22T10:48:30.037Z,8.90
2019-05-22T10:50:59.275Z,3.72
2019-05-22T10:53:33.509Z,4.92
2019-05-22T10:55:59.737Z,3.90
2019-05-22T10:58:28.369Z,3.22
2019-05-22T11:00:57.045Z,9.23
2019-05-22T11:03:26.052Z,3.83
2019-05-22T11:06:06.301Z,3.60
2019-05-22T11:08:29.484Z,3.55
2019-05-22T11:10:56.311Z,4.85
2019-05-22T11:13:25.453Z,4.70
2019-05-22T11:15:54.170Z,3.47
2019-05-22T11:18:23.003Z,3.08
2019-05-22T11:20:52.391Z,3.70
2019-05-22T11:23:21.092Z,4.00
2019-05-22T11:25:49.887Z,3.33
2019-05-22T11:28:18.932Z,3.95
2019-05-22T11:30:48.074Z,3.90
2019-05-22T11:33:16.830Z,3.12
2019-05-22T11:36:05.739Z,3.58
2019-05-22T11:38:34.474Z,3.10
2019-05-22T11:41:03.718Z,3.37
2019-05-22T11:43:32.525Z,3.67
2019-05-22T11:46:01.771Z,3.47
2019-05-22T11:48:30.513Z,4.72
2019-05-22T11:51:01.029Z,7.67
2019-05-22T11:53:30.246Z,3.10
2019-05-22T11:56:00.388Z,3.15
2019-05-22T11:58:29.395Z,3.92
2019-05-22T12:00:58.101Z,4.03
2019-05-22T12:03:27.085Z,2.87
2019-05-22T12:05:55.883Z,4.97
2019-05-22T12:08:25.569Z,3.42
2019-05-22T12:10:54.316Z,3.17
2019-05-22T12:13:23.306Z,3.85
2019-05-22T12:15:53.150Z,4.03
2019-05-22T12:18:21.827Z,3.75
2019-05-22T12:20:50.521Z,3.25
2019-05-22T12:23:19.635Z,4.42
2019-05-22T12:25:48.329Z,4.37
2019-05-22T12:28:17.637Z,4.55
2019-05-22T12:30:47.346Z,3.87
2019-05-22T12:33:16.146Z,3.50
2019-05-22T12:35:44.904Z,2.83
2019-05-22T12:38:13.943Z,3.17
2019-05-22T12:40:43.545Z,4.92
2019-05-22T12:43:12.339Z,3.45
2019-05-22T12:45:41.088Z,4.05
2019-05-22T12:48:10.209Z,9.63
2019-05-22T12:50:39.502Z,3.40
2019-05-22T12:53:09.350Z,2.62
2019-05-22T12:55:38.287Z,3.35
2019-05-22T12:58:07.035Z,3.15
2019-05-22T13:00:36.610Z,3.00
2019-05-22T13:03:07.043Z,2.60
2019-05-22T13:05:39.323Z,3.05
2019-05-22T13:08:09.369Z,3.00
2019-05-22T13:10:38.902Z,2.80
2019-05-22T13:13:07.947Z,2.67
2019-05-22T13:15:39.025Z,3.00
2019-05-22T13:18:10.015Z,2.62
2019-05-22T13:20:43.565Z,4.03
2019-05-22T13:23:13.947Z,3.55
2019-05-22T13:25:43.606Z,3.30
2019-05-22T13:28:16.369Z,3.00
2019-05-22T13:30:48.375Z,3.55
2019-05-22T13:33:22.161Z,3.50
2019-05-22T13:35:52.142Z,2.80
2019-05-22T13:38:21.283Z,4.67
2019-05-22T13:40:50.275Z,3.05
2019-05-22T13:43:19.313Z,3.65
2019-05-22T13:45:48.067Z,3.22
2019-05-22T13:48:16.678Z,3.87
2019-05-22T13:50:47.804Z,4.90
2019-05-22T13:53:18.024Z,3.17
2019-05-22T13:55:47.247Z,3.37
2019-05-22T13:58:18.602Z,8.00
2019-05-22T14:00:48.011Z,3.85
2019-05-22T14:03:17.618Z,4.25
2019-05-22T14:05:46.936Z,4.22
2019-05-22T14:08:16.308Z,4.05
2019-05-22T14:10:45.467Z,4.67
2019-05-22T14:13:15.759Z,5.08
2019-05-22T14:15:52.610Z,4.37
2019-05-22T14:18:15.204Z,4.40
2019-05-22T14:20:44.303Z,4.55
2019-05-22T14:23:14.005Z,4.85
2019-05-22T14:25:43.947Z,4.25
2019-05-22T14:28:14.169Z,18.62
2019-05-22T14:30:43.867Z,5.47
2019-05-22T14:33:12.849Z,4.55
2019-05-22T14:35:48.366Z,3.90
2019-05-22T14:38:13.466Z,4.33
2019-05-22T14:40:42.927Z,3.62
2019-05-22T14:43:11.998Z,5.90
2019-05-22T14:45:42.482Z,4.30
2019-05-22T14:48:11.599Z,5.85
2019-05-22T14:50:40.282Z,4.60
2019-05-22T14:53:10.693Z,4.37
2019-05-22T14:55:40.589Z,4.60
2019-05-22T14:58:10.010Z,4.12
2019-05-22T15:00:39.554Z,4.75
2019-05-22T15:03:09.070Z,4.87
2019-05-22T15:05:37.980Z,4.75
2019-05-22T15:08:07.493Z,5.37
2019-05-22T15:10:39.084Z,5.67
2019-05-22T15:13:08.774Z,5.17
2019-05-22T15:15:40.656Z,5.55
2019-05-22T15:18:08.209Z,15.45
2019-05-22T15:20:42.195Z,10.50
2019-05-22T15:23:11.552Z,5.80
2019-05-22T15:25:40.330Z,5.47
2019-05-22T15:28:09.943Z,5.42
2019-05-22T15:30:39.290Z,4.80
2019-05-22T15:33:09.470Z,4.55
2019-05-22T15:35:38.350Z,4.85
2019-05-22T15:38:10.387Z,4.62
2019-05-22T15:40:39.701Z,4.70
2019-05-22T15:43:10.372Z,5.05
2019-05-22T15:45:40.281Z,4.78
2019-05-22T15:48:12.487Z,5.67
2019-05-22T15:50:43.497Z,6.05
2019-05-22T15:53:15.183Z,6.33
2019-05-22T15:55:45.780Z,6.65
2019-05-22T15:58:17.336Z,6.67
2019-05-22T16:00:48.269Z,5.97
2019-05-22T16:03:25.160Z,6.17
2019-05-22T16:05:54.914Z,6.55
2019-05-22T16:08:24.404Z,6.85
2019-05-22T16:10:58.945Z,7.15
2019-05-22T16:13:26.898Z,7.22
2019-05-22T16:15:57.608Z,7.75
2019-05-22T16:18:31.894Z,6.58
2019-05-22T16:21:04.628Z,10.20
2019-05-22T16:23:37.460Z,9.65
2019-05-22T16:26:10.006Z,8.05
2019-05-22T16:28:41.040Z,8.53
2019-05-22T16:31:10.710Z,8.50
2019-05-22T16:33:43.531Z,8.60
2019-05-22T16:36:13.355Z,10.95
2019-05-22T16:38:44.030Z,8.98
2019-05-22T16:41:13.514Z,8.38
2019-05-22T16:43:49.336Z,8.65
2019-05-22T16:46:16.869Z,8.05
2019-05-22T16:48:48.076Z,7.58
2019-05-22T16:51:18.511Z,7.95
2019-05-22T16:53:57.828Z,7.75
2019-05-22T16:56:27.749Z,9.28
2019-05-22T16:58:56.890Z,11.55
2019-05-22T17:01:26.872Z,8.48
2019-05-22T17:03:58.641Z,8.30
2019-05-22T17:06:27.917Z,11.65
2019-05-22T17:08:58.039Z,10.65
2019-05-22T17:11:27.949Z,8.65
2019-05-22T17:13:59.331Z,9.43
2019-05-22T17:16:29.653Z,10.18
2019-05-22T17:18:58.778Z,10.68
2019-05-22T17:21:28.832Z,10.35
2019-05-22T17:23:59.427Z,10.00
2019-05-22T17:26:30.068Z,10.90
2019-05-22T17:28:59.576Z,10.72
2019-05-22T17:31:29.465Z,11.08
2019-05-22T17:33:59.489Z,11.10
2019-05-22T17:36:30.963Z,10.63
2019-05-22T17:38:59.901Z,10.98
2019-05-22T17:41:30.531Z,10.93
2019-05-22T17:44:00.747Z,11.75
2019-05-22T17:46:31.755Z,12.20
2019-05-22T17:49:01.524Z,12.13
2019-05-22T17:51:31.213Z,12.28
2019-05-22T17:54:00.325Z,13.10
2019-05-22T17:56:29.342Z,12.78
2019-05-22T17:58:58.141Z,12.60
2019-05-22T18:01:28.069Z,9.40
2019-05-22T18:03:56.967Z,7.83
2019-05-22T18:06:26.471Z,8.00
2019-05-22T18:08:58.269Z,7.60
2019-05-22T18:11:27.222Z,7.55
2019-05-22T18:14:00.934Z,7.30
2019-05-22T18:16:31.189Z,7.72
2019-05-22T18:19:00.299Z,6.30
2019-05-22T18:21:28.989Z,6.42
2019-05-22T18:24:09.806Z,5.50
2019-05-22T18:26:38.575Z,5.20
2019-05-22T18:29:07.378Z,5.30
2019-05-22T18:31:36.231Z,4.28
2019-05-22T18:34:05.283Z,3.98
2019-05-22T18:36:34.737Z,3.17
2019-05-22T18:39:03.854Z,2.33
2019-05-22T18:41:32.585Z,2.35
2019-05-22T18:44:01.372Z,2.00
2019-05-22T18:46:33.883Z,2.12
2019-05-22T18:49:02.801Z,1.77
2019-05-22T18:51:32.156Z,1.98
2019-05-22T18:54:01.290Z,2.17
2019-05-22T18:56:30.237Z,1.50
2019-05-22T18:58:58.941Z,1.70
2019-05-22T19:01:27.784Z,1.82
2019-05-22T19:03:56.479Z,1.55
2019-05-22T19:06:30.290Z,1.92
2019-05-22T19:08:56.151Z,1.85
2019-05-22T19:11:24.939Z,1.65
2019-05-22T19:13:53.562Z,2.08
2019-05-22T19:16:23.592Z,1.90
2019-05-22T19:18:52.320Z,2.40
2019-05-22T19:21:21.276Z,1.62
2019-05-22T19:23:50.714Z,2.00
2019-05-22T19:26:19.685Z,1.90
2019-05-22T19:28:48.485Z,2.17
2019-05-22T19:31:17.228Z,2.27
2019-05-22T19:33:46.267Z,2.30
2019-05-22T19:36:14.941Z,2.22
2019-05-22T19:38:43.712Z,2.62
2019-05-22T19:41:12.703Z,2.42
2019-05-22T19:43:41.881Z,2.10
2019-05-22T19:46:11.150Z,2.15
2019-05-22T19:48:39.895Z,2.25
2019-05-22T19:51:08.565Z,2.10
2019-05-22T19:53:37.676Z,2.22
2019-05-22T19:56:06.910Z,2.85
2019-05-22T19:58:35.832Z,3.37
2019-05-22T20:01:05.937Z,3.08
2019-05-22T20:03:35.073Z,2.92
2019-05-22T20:06:03.815Z,3.02
2019-05-22T20:08:36.153Z,2.75
2019-05-22T20:11:04.330Z,3.40
2019-05-22T20:13:33.733Z,2.90
2019-05-22T20:16:02.699Z,3.05
2019-05-22T20:18:31.482Z,3.75
2019-05-22T20:21:00.431Z,3.90
2019-05-22T20:23:35.981Z,3.15
2019-05-22T20:26:01.831Z,3.40
2019-05-22T20:28:31.562Z,3.80
2019-05-22T20:31:00.374Z,2.95
2019-05-22T20:33:29.068Z,3.10
2019-05-22T20:35:57.850Z,3.50
2019-05-22T20:38:27.415Z,3.80
2019-05-22T20:40:56.439Z,3.50
2019-05-22T20:43:25.904Z,3.80
2019-05-22T20:45:55.536Z,4.47
2019-05-22T20:48:27.061Z,4.10
2019-05-22T20:51:08.597Z,4.53
2019-05-22T20:53:54.819Z,4.75
2019-05-22T20:56:25.316Z,4.95
2019-05-22T20:58:54.657Z,4.87
2019-05-22T21:01:23.406Z,5.65
2019-05-22T21:03:52.660Z,5.37
2019-05-22T21:06:23.200Z,4.83
2019-05-22T21:08:52.594Z,5.80
2019-05-22T21:11:25.146Z,5.58
2019-05-22T21:13:54.731Z,5.40
2019-05-22T21:16:23.812Z,6.03
2019-05-22T21:18:54.257Z,6.33
2019-05-22T21:21:25.701Z,6.67
2019-05-22T21:24:09.577Z,6.75
2019-05-22T21:26:26.713Z,7.28
2019-05-22T21:28:55.456Z,8.15
2019-05-22T21:31:24.873Z,6.87
2019-05-22T21:33:54.510Z,7.17
2019-05-22T21:36:24.760Z,7.30
2019-05-22T21:38:53.954Z,7.17
2019-05-22T21:41:23.281Z,7.50
2019-05-22T21:43:53.843Z,7.03
2019-05-22T21:46:23.396Z,7.20
2019-05-22T21:48:53.732Z,7.62
2019-05-22T21:51:23.620Z,7.25
2019-05-22T21:53:53.362Z,8.05
2019-05-22T21:56:22.609Z,7.60
2019-05-22T21:58:52.060Z,7.17
2019-05-22T22:01:22.381Z,7.97
2019-05-22T22:03:53.788Z,7.65
2019-05-22T22:06:23.411Z,7.35
2019-05-22T22:08:52.169Z,7.67
2019-05-22T22:11:23.890Z,7.62
2019-05-22T22:13:53.034Z,7.55
2019-05-22T22:16:23.041Z,7.72
2019-05-22T22:18:51.786Z,7.67
2019-05-22T22:21:21.269Z,7.87
2019-05-22T22:23:50.531Z,6.90
2019-05-22T22:26:25.868Z,7.33
2019-05-22T22:28:51.021Z,6.83
2019-05-22T22:31:21.308Z,7.20
2019-05-22T22:33:53.186Z,6.22
2019-05-22T22:36:22.313Z,6.67
2019-05-22T22:38:51.944Z,6.42
2019-05-22T22:41:21.454Z,6.72
2019-05-22T22:43:52.071Z,6.00
2019-05-22T22:46:41.474Z,5.65
2019-05-22T22:49:13.488Z,5.20
2019-05-22T22:51:42.696Z,5.90
2019-05-22T22:54:14.199Z,5.50
2019-05-22T22:56:43.542Z,5.87
2019-05-22T22:59:12.960Z,5.33
2019-05-22T23:01:46.020Z,5.58
2019-05-22T23:04:15.461Z,5.78
2019-05-22T23:06:45.139Z,5.72
2019-05-22T23:09:15.288Z,5.50
2019-05-22T23:11:45.851Z,5.70
2019-05-22T23:14:15.659Z,5.42
2019-05-22T23:16:45.312Z,5.40
2019-05-22T23:19:18.187Z,5.62
2019-05-22T23:21:48.961Z,6.30
2019-05-22T23:24:19.911Z,6.17
2019-05-22T23:26:49.329Z,5.83
2019-05-22T23:29:19.738Z,5.72
2019-05-22T23:31:49.734Z,5.45
2019-05-22T23:34:18.665Z,5.80
2019-05-22T23:36:47.617Z,5.65
2019-05-22T23:39:18.459Z,5.58
2019-05-22T23:41:48.665Z,5.75
2019-05-22T23:44:20.192Z,5.65
2019-05-22T23:46:49.886Z,5.70
2019-05-22T23:49:19.323Z,5.12
2019-05-22T23:51:48.537Z,5.58
2019-05-22T23:54:17.310Z,6.22
2019-05-22T23:56:46.641Z,6.10
2019-05-22T23:59:16.860Z,5.85
